createdAt,value
2023-03-29T00:00:14.799Z,-4.34
2023-03-29T00:05:22.920Z,-4.39
2023-03-29T00:10:24.990Z,-4.45
2023-03-29T00:15:27.872Z,-4.51
2023-03-29T00:20:38.774Z,-4.54
2023-03-29T00:25:49.994Z,-4.52
2023-03-29T00:30:54.491Z,-4.50
2023-03-29T00:35:56.504Z,-4.52
2023-03-29T00:41:01.820Z,-4.58
2023-03-29T00:46:04.517Z,-4.64
2023-03-29T00:51:11.052Z,-4.66
2023-03-29T00:56:27.735Z,-4.68
2023-03-29T01:02:07.278Z,-4.73
2023-03-29T01:07:54.938Z,-4.79
2023-03-29T01:13:11.900Z,-4.84
2023-03-29T01:18:16.922Z,-4.89
2023-03-29T01:23:34.687Z,-4.92
2023-03-29T01:28:55.643Z,-4.94
2023-03-29T01:34:11.636Z,-4.98
2023-03-29T01:39:19.043Z,-5.00
2023-03-29T01:44:40.591Z,-5.02
2023-03-29T01:49:59.826Z,-5.04
2023-03-29T01:55:25.013Z,-5.06
2023-03-29T02:00:29.760Z,-5.08
2023-03-29T02:05:35.921Z,-5.10
2023-03-29T02:10:38.396Z,-5.14
2023-03-29T02:15:40.851Z,-5.17
2023-03-29T02:20:47.386Z,-5.20
2023-03-29T02:25:53.606Z,-5.20
2023-03-29T02:31:14.814Z,-5.23
2023-03-29T02:36:20.134Z,-5.26
2023-03-29T02:41:24.690Z,-5.29
2023-03-29T02:46:31.002Z,-5.33
2023-03-29T02:51:34.993Z,-5.36
2023-03-29T02:56:50.309Z,-5.39
2023-03-29T03:01:53.716Z,-5.41
2023-03-29T03:06:56.948Z,-5.43
2023-03-29T03:12:00.331Z,-5.44
2023-03-29T03:17:05.179Z,-5.42
2023-03-29T03:22:09.928Z,-5.39
2023-03-29T03:27:14.708Z,-5.37
2023-03-29T03:32:17.613Z,-5.38
2023-03-29T03:37:40.960Z,-5.40
2023-03-29T03:42:44.044Z,-5.42
2023-03-29T03:47:46.730Z,-5.44
2023-03-29T03:53:02.622Z,-5.46
2023-03-29T03:58:18.051Z,-5.46
2023-03-29T04:03:24.135Z,-5.48
2023-03-29T04:08:35.357Z,-5.48
2023-03-29T04:13:48.279Z,-5.51
2023-03-29T04:19:13.946Z,-5.54
2023-03-29T04:24:23.977Z,-5.54
2023-03-29T04:29:46.845Z,-5.54
2023-03-29T04:34:58.140Z,-5.53
2023-03-29T04:40:00.460Z,-5.51
2023-03-29T04:45:07.151Z,-5.47
2023-03-29T04:50:25.888Z,-5.43
2023-03-29T04:55:28.269Z,-5.37
2023-03-29T05:00:38.065Z,-5.31
2023-03-29T05:06:10.632Z,-5.22
2023-03-29T05:11:14.323Z,-5.11
2023-03-29T05:16:30.258Z,-4.98
2023-03-29T05:21:34.441Z,-4.83
2023-03-29T05:26:40.577Z,-4.68
2023-03-29T05:31:43.089Z,-4.51
2023-03-29T05:36:46.379Z,-4.34
2023-03-29T05:41:49.455Z,-4.14
2023-03-29T05:47:15.556Z,-3.93
2023-03-29T05:52:18.602Z,-3.73
2023-03-29T05:57:21.082Z,-3.52
2023-03-29T06:02:26.223Z,-3.32
2023-03-29T06:07:29.956Z,-3.10
2023-03-29T06:13:01.991Z,-2.87
2023-03-29T06:18:07.740Z,-2.68
2023-03-29T06:23:10.729Z,-2.47
2023-03-29T06:28:15.674Z,-2.26
2023-03-29T06:33:18.882Z,-2.06
2023-03-29T06:38:28.633Z,-1.83
2023-03-29T06:43:33.320Z,-1.60
2023-03-29T06:48:48.729Z,-1.37
2023-03-29T06:53:54.857Z,-1.12
2023-03-29T06:58:57.393Z,-0.88
2023-03-29T07:04:09.451Z,-0.63
2023-03-29T07:09:36.431Z,-0.38
2023-03-29T07:15:02.262Z,-0.12
2023-03-29T07:20:27.257Z,0.16
2023-03-29T07:25:50.497Z,0.43
2023-03-29T07:31:12.537Z,0.73
2023-03-29T07:36:34.502Z,1.01
2023-03-29T07:41:46.116Z,1.24
2023-03-29T07:46:51.254Z,1.50
2023-03-29T07:52:30.107Z,1.74
2023-03-29T07:57:44.200Z,2.03
2023-03-29T08:03:32.645Z,2.31
2023-03-29T08:09:17.371Z,2.55
2023-03-29T08:14:38.557Z,2.70
2023-03-29T08:20:18.337Z,2.87
2023-03-29T08:25:45.505Z,3.04
2023-03-29T08:31:14.752Z,3.24
2023-03-29T08:36:55.917Z,3.45
2023-03-29T08:42:30.922Z,3.62
2023-03-29T08:48:12.464Z,3.81
2023-03-29T08:53:33.791Z,4.11
2023-03-29T08:58:48.021Z,4.34
2023-03-29T09:04:31.802Z,4.46
2023-03-29T09:10:11.492Z,4.56
2023-03-29T09:16:25.559Z,4.69
2023-03-29T09:22:30.650Z,4.84
2023-03-29T09:27:45.597Z,4.95
2023-03-29T09:33:45.092Z,5.00
2023-03-29T09:39:02.428Z,5.11
2023-03-29T09:44:31.300Z,5.31
2023-03-29T09:50:05.255Z,5.39
2023-03-29T09:55:40.184Z,5.52
2023-03-29T10:01:15.560Z,5.64
2023-03-29T10:06:32.709Z,5.87
2023-03-29T10:12:04.770Z,6.10
2023-03-29T10:17:38.037Z,6.30
2023-03-29T10:23:03.897Z,6.49
2023-03-29T10:28:16.220Z,6.63
2023-03-29T10:34:01.455Z,6.83
2023-03-29T10:39:29.950Z,6.90
2023-03-29T10:44:47.334Z,6.91
2023-03-29T10:50:06.185Z,7.13
2023-03-29T10:55:18.737Z,7.48
2023-03-29T11:00:40.758Z,7.67
2023-03-29T11:06:46.202Z,7.63
2023-03-29T11:13:08.433Z,7.68
2023-03-29T11:19:26.385Z,7.90
2023-03-29T11:25:19.180Z,8.16
2023-03-29T11:31:18.379Z,8.28
2023-03-29T11:37:28.148Z,8.53
2023-03-29T11:43:01.398Z,8.92
2023-03-29T11:48:14.176Z,9.23
2023-03-29T11:54:02.871Z,9.43
2023-03-29T11:59:58.817Z,9.41
2023-03-29T12:06:05.090Z,9.33
2023-03-29T12:11:49.127Z,9.38
2023-03-29T12:17:05.525Z,9.53
2023-03-29T12:22:53.328Z,9.66
2023-03-29T12:28:26.635Z,9.76
2023-03-29T12:34:36.237Z,9.98
2023-03-29T12:40:52.006Z,10.24
2023-03-29T12:46:56.057Z,10.34
2023-03-29T12:52:36.812Z,10.31
2023-03-29T12:58:08.435Z,10.27
2023-03-29T13:03:57.464Z,10.33
2023-03-29T13:09:46.510Z,10.37
2023-03-29T13:15:36.819Z,10.39
2023-03-29T13:21:39.138Z,10.49
2023-03-29T13:27:13.903Z,10.52
2023-03-29T13:33:13.897Z,10.41
2023-03-29T13:38:25.983Z,10.27
2023-03-29T13:44:08.937Z,10.10
2023-03-29T13:49:34.405Z,9.94
2023-03-29T13:55:17.998Z,9.81
2023-03-29T14:00:37.139Z,9.82
2023-03-29T14:05:44.238Z,9.91
2023-03-29T14:10:50.119Z,10.13
2023-03-29T14:16:12.990Z,10.33
2023-03-29T14:21:15.050Z,10.38
2023-03-29T14:26:22.759Z,10.46
2023-03-29T14:31:52.299Z,10.41
2023-03-29T14:36:54.477Z,10.28
2023-03-29T14:41:57.201Z,10.16
2023-03-29T14:47:03.385Z,10.17
2023-03-29T14:52:14.843Z,10.14
2023-03-29T14:57:20.789Z,10.11
2023-03-29T15:02:36.105Z,10.06
2023-03-29T15:07:43.236Z,10.01
2023-03-29T15:12:46.653Z,9.89
2023-03-29T15:17:52.898Z,9.83
2023-03-29T15:23:17.804Z,9.75
2023-03-29T15:28:44.825Z,9.72
2023-03-29T15:34:24.182Z,9.68
2023-03-29T15:39:35.652Z,9.60
2023-03-29T15:44:41.302Z,9.56
2023-03-29T15:49:53.611Z,9.51
2023-03-29T15:55:00.611Z,9.36
2023-03-29T16:00:08.024Z,9.18
2023-03-29T16:05:14.823Z,8.96
2023-03-29T16:10:21.124Z,8.72
2023-03-29T16:15:33.847Z,8.50
2023-03-29T16:20:38.086Z,8.30
2023-03-29T16:26:05.035Z,8.14
2023-03-29T16:31:17.262Z,7.99
2023-03-29T16:36:24.617Z,7.87
2023-03-29T16:41:38.698Z,7.77
2023-03-29T16:46:46.209Z,7.67
2023-03-29T16:51:48.870Z,7.57
2023-03-29T16:56:53.474Z,7.49
2023-03-29T17:01:58.467Z,7.39
2023-03-29T17:07:05.552Z,7.29
2023-03-29T17:12:08.156Z,7.21
2023-03-29T17:17:11.170Z,7.11
2023-03-29T17:22:13.281Z,7.00
2023-03-29T17:27:15.957Z,6.89
2023-03-29T17:32:20.505Z,6.79
2023-03-29T17:37:29.950Z,6.68
2023-03-29T17:42:34.296Z,6.59
2023-03-29T17:47:43.306Z,6.51
2023-03-29T17:52:48.806Z,6.45
2023-03-29T17:57:51.793Z,6.37
2023-03-29T18:02:54.495Z,6.26
2023-03-29T18:07:57.347Z,6.15
2023-03-29T18:13:01.251Z,6.04
2023-03-29T18:18:04.404Z,5.94
2023-03-29T18:23:09.194Z,5.84
2023-03-29T18:28:14.579Z,5.74
2023-03-29T18:33:25.372Z,5.63
2023-03-29T18:38:27.410Z,5.52
2023-03-29T18:43:34.012Z,5.42
2023-03-29T18:48:42.341Z,5.36
2023-03-29T18:53:44.872Z,5.28
2023-03-29T18:58:48.248Z,5.20
2023-03-29T19:03:50.305Z,5.13
2023-03-29T19:08:58.279Z,5.09
2023-03-29T19:14:00.824Z,5.01
2023-03-29T19:19:04.976Z,4.92
2023-03-29T19:24:08.162Z,4.85
2023-03-29T19:29:13.090Z,4.80
2023-03-29T19:34:21.120Z,4.78
2023-03-29T19:39:25.006Z,4.84
2023-03-29T19:44:28.277Z,4.92
2023-03-29T19:49:31.039Z,4.99
2023-03-29T19:54:33.363Z,5.02
2023-03-29T19:59:39.087Z,5.03
2023-03-29T20:04:41.745Z,5.03
2023-03-29T20:09:45.507Z,5.03
2023-03-29T20:14:56.491Z,5.05
2023-03-29T20:19:59.027Z,5.09
2023-03-29T20:25:01.080Z,5.11
2023-03-29T20:30:04.737Z,5.12
2023-03-29T20:35:07.185Z,5.13
2023-03-29T20:40:11.232Z,5.15
2023-03-29T20:45:18.659Z,5.19
2023-03-29T20:50:26.697Z,5.21
2023-03-29T20:55:30.503Z,5.26
2023-03-29T21:00:38.387Z,5.29
2023-03-29T21:05:40.845Z,5.32
2023-03-29T21:10:51.691Z,5.34
2023-03-29T21:15:57.141Z,5.37
2023-03-29T21:21:04.994Z,5.39
2023-03-29T21:26:12.691Z,5.41
2023-03-29T21:31:17.597Z,5.44
2023-03-29T21:36:20.985Z,5.46
2023-03-29T21:41:27.082Z,5.48
2023-03-29T21:46:34.277Z,5.48
2023-03-29T21:51:46.769Z,5.49
2023-03-29T21:56:51.128Z,5.50
2023-03-29T22:01:53.558Z,5.49
2023-03-29T22:06:56.174Z,5.48
2023-03-29T22:11:59.934Z,5.47
2023-03-29T22:17:07.008Z,5.47
2023-03-29T22:22:26.485Z,5.47
2023-03-29T22:27:30.702Z,5.47
2023-03-29T22:32:35.859Z,5.49
2023-03-29T22:37:44.194Z,5.49
2023-03-29T22:42:49.398Z,5.51
2023-03-29T22:48:36.028Z,5.53
2023-03-29T22:53:39.079Z,5.54
2023-03-29T22:59:06.539Z,5.57
2023-03-29T23:04:38.847Z,5.59
2023-03-29T23:10:42.921Z,5.60
2023-03-29T23:16:34.025Z,5.61
2023-03-29T23:21:47.152Z,5.64
2023-03-29T23:27:29.511Z,5.64
2023-03-29T23:33:15.823Z,5.62
2023-03-29T23:38:44.949Z,5.60
2023-03-29T23:43:57.703Z,5.59
2023-03-29T23:49:51.453Z,5.58
2023-03-29T23:55:30.897Z,5.56
